Time;durP1;ratioP1;P1;durP2;ratioP2;P2;SDS_P1;SDS_P2;PMS_P1;PMS_P2;Temp;Humidity;BMP_temperature;BMP_pressure;BME280_temperature;BME280_humidity;BME280_pressure;Samples;Min_cycle;Max_cycle;Signal;HPM_P1;HPM_P2
2023/11/08 00:01:35;;;;;;;3.40;1.73;;;8.10;99.90;;;;;;5042920;28;20179;-71
2023/11/08 00:04:00;;;;;;;2.80;1.70;;;8.10;99.90;;;;;;5034979;28;20172;-72
2023/11/08 00:06:26;;;;;;;2.83;2.10;;;8.10;99.90;;;;;;5035597;28;20175;-71
2023/11/08 00:08:52;;;;;;;2.70;1.77;;;8.10;99.90;;;;;;5035495;28;20186;-71
2023/11/08 00:11:23;;;;;;;6.40;1.90;;;8.10;99.90;;;;;;5045481;28;20956;-72
2023/11/08 00:13:50;;;;;;;2.30;1.60;;;8.10;99.90;;;;;;5054477;28;20270;-71
2023/11/08 00:16:17;;;;;;;3.63;1.60;;;8.00;99.90;;;;;;5055453;28;20402;-72
2023/11/08 00:18:46;;;;;;;2.73;1.90;;;8.00;99.90;;;;;;5055381;28;20435;-71
2023/11/08 00:21:11;;;;;;;1.90;1.77;;;8.10;99.90;;;;;;5046245;28;20501;-70
2023/11/08 00:23:39;;;;;;;3.53;1.70;;;8.10;99.90;;;;;;5035088;28;20414;-72
2023/11/08 00:26:05;;;;;;;3.23;1.87;;;8.10;99.90;;;;;;5043713;28;20178;-71
2023/11/08 00:28:31;;;;;;;2.70;1.90;;;8.20;99.90;;;;;;5034896;28;20450;-72
2023/11/08 00:30:57;;;;;;;4.70;1.60;;;8.30;99.90;;;;;;5042214;28;20412;-71
2023/11/08 00:33:24;;;;;;;3.50;2.17;;;8.40;99.90;;;;;;5054873;28;20230;-71
2023/11/08 00:35:50;;;;;;;2.00;1.50;;;8.40;99.90;;;;;;5055114;28;20225;-72
2023/11/08 00:38:15;;;;;;;4.60;2.10;;;8.40;99.90;;;;;;5054908;28;20453;-71
2023/11/08 00:40:41;;;;;;;5.90;1.70;;;8.60;99.90;;;;;;5050230;28;20177;-71
2023/11/08 00:43:07;;;;;;;2.23;1.57;;;8.70;99.90;;;;;;5035014;28;20272;-71
2023/11/08 00:45:34;;;;;;;3.73;1.93;;;8.90;99.90;;;;;;5035027;28;20227;-71
2023/11/08 00:48:01;;;;;;;5.13;1.67;;;9.10;99.90;;;;;;5034915;28;20551;-71
2023/11/08 00:50:27;;;;;;;3.93;1.83;;;9.00;99.90;;;;;;5037170;28;20417;-70
2023/11/08 00:52:53;;;;;;;4.30;1.83;;;9.20;99.90;;;;;;5054684;28;20976;-72
2023/11/08 00:55:19;;;;;;;2.33;1.50;;;9.30;99.90;;;;;;5054517;28;20432;-72
2023/11/08 00:57:44;;;;;;;3.93;2.20;;;9.30;99.90;;;;;;5054431;28;20186;-72
2023/11/08 01:00:10;;;;;;;6.97;2.43;;;9.30;99.90;;;;;;5055362;28;20516;-72
2023/11/08 01:02:36;;;;;;;4.13;1.60;;;9.20;99.90;;;;;;5014869;28;20185;-72
2023/11/08 01:05:02;;;;;;;2.20;1.70;;;9.20;99.90;;;;;;5014522;28;20818;-71
2023/11/08 01:07:27;;;;;;;2.40;1.57;;;9.20;99.90;;;;;;5014671;28;20229;-71
2023/11/08 01:09:53;;;;;;;2.57;1.80;;;9.20;99.90;;;;;;5014745;28;20208;-72
2023/11/08 01:12:18;;;;;;;3.00;1.90;;;9.00;99.90;;;;;;5049092;28;20191;-71
2023/11/08 01:14:44;;;;;;;1.60;1.50;;;8.80;99.90;;;;;;5054074;28;20171;-71
2023/11/08 01:17:10;;;;;;;3.07;1.30;;;8.80;99.90;;;;;;5054226;28;20592;-72
2023/11/08 01:19:36;;;;;;;2.53;1.80;;;8.80;99.90;;;;;;5054246;28;20214;-71
2023/11/08 01:22:05;;;;;;;2.43;1.57;;;8.80;99.90;;;;;;5039032;28;20415;-72
2023/11/08 01:24:34;;;;;;;3.80;1.70;;;8.80;99.90;;;;;;5033881;28;20414;-71
2023/11/08 01:27:01;;;;;;;7.63;1.87;;;8.80;99.90;;;;;;5033924;28;20402;-71
2023/11/08 01:29:27;;;;;;;2.77;1.77;;;8.70;99.90;;;;;;5033893;28;20392;-71
2023/11/08 01:31:56;;;;;;;3.97;1.67;;;8.40;99.90;;;;;;5046401;28;20775;-70
2023/11/08 01:34:22;;;;;;;2.13;1.60;;;8.40;99.90;;;;;;5053689;28;20471;-71
2023/11/08 01:36:48;;;;;;;3.00;1.80;;;8.30;99.90;;;;;;5053844;28;20412;-71
2023/11/08 01:39:14;;;;;;;4.90;1.57;;;8.20;99.90;;;;;;5053585;28;20181;-71
2023/11/08 01:41:48;;;;;;;2.37;1.70;;;8.30;99.90;;;;;;5041935;28;20875;-72
2023/11/08 01:44:18;;;;;;;5.13;1.83;;;8.10;99.90;;;;;;5033913;28;20245;-71
2023/11/08 01:46:44;;;;;;;2.60;1.70;;;8.00;99.90;;;;;;5033483;28;20931;-72
2023/11/08 01:49:12;;;;;;;2.37;1.50;;;7.90;99.90;;;;;;5033801;28;20416;-70
2023/11/08 01:51:37;;;;;;;3.03;1.87;;;7.90;99.90;;;;;;5044806;28;20420;-71
2023/11/08 01:54:03;;;;;;;4.40;2.13;;;7.90;99.90;;;;;;5053949;28;20408;-70
2023/11/08 01:56:29;;;;;;;3.43;1.77;;;7.80;99.90;;;;;;5053652;28;20230;-71
2023/11/08 01:58:56;;;;;;;2.83;1.80;;;7.90;99.90;;;;;;5039334;28;20206;-71
2023/11/08 02:01:23;;;;;;;3.27;1.90;;;7.90;99.90;;;;;;5042322;28;20813;-71
2023/11/08 02:03:49;;;;;;;1.73;1.43;;;7.80;99.90;;;;;;5053220;28;20466;-72
2023/11/08 02:06:18;;;;;;;2.70;1.30;;;7.80;99.90;;;;;;5053147;28;20436;-71
2023/11/08 02:08:45;;;;;;;5.10;1.53;;;7.80;99.90;;;;;;5053073;28;20432;-72
2023/11/08 02:11:12;;;;;;;2.20;1.23;;;7.70;99.90;;;;;;5045820;28;20513;-71
2023/11/08 02:13:39;;;;;;;1.97;1.10;;;7.70;99.90;;;;;;5033333;28;20493;-72
2023/11/08 02:16:05;;;;;;;3.83;1.90;;;7.80;99.90;;;;;;5033110;28;20978;-72
2023/11/08 02:18:33;;;;;;;2.90;1.43;;;7.90;99.90;;;;;;5033050;28;20425;-71
2023/11/08 02:21:00;;;;;;;3.30;1.47;;;8.00;99.90;;;;;;5034510;28;20402;-71
2023/11/08 02:23:26;;;;;;;6.20;1.83;;;7.80;99.90;;;;;;5033035;28;20424;-71
2023/11/08 02:25:55;;;;;;;2.60;1.27;;;7.70;99.90;;;;;;5033384;28;20901;-72
2023/11/08 02:28:21;;;;;;;2.03;1.20;;;7.70;99.90;;;;;;5062784;22;20492;-75
2023/11/08 02:30:54;;;;;;;3.47;1.77;;;7.70;99.90;;;;;;5049532;28;20536;-75
2023/11/08 02:33:24;;;;;;;2.83;1.70;;;7.70;99.90;;;;;;5033005;28;20448;-75
2023/11/08 02:35:50;;;;;;;1.87;1.40;;;7.80;99.90;;;;;;5032666;28;20406;-75
2023/11/08 02:38:16;;;;;;;4.30;1.40;;;7.80;99.90;;;;;;5032924;28;20979;-75
2023/11/08 02:40:42;;;;;;;2.43;1.40;;;7.90;99.90;;;;;;5031632;28;20506;-75
2023/11/08 02:43:09;;;;;;;2.30;1.87;;;7.90;99.90;;;;;;5032836;28;20261;-75
2023/11/08 02:45:34;;;;;;;1.83;1.30;;;7.90;99.90;;;;;;5033008;28;20405;-75
2023/11/08 02:48:05;;;;;;;4.83;1.17;;;8.00;99.90;;;;;;5032652;28;20993;-75
2023/11/08 02:50:36;;;;;;;2.43;1.83;;;7.90;99.90;;;;;;5033073;28;20151;-75
2023/11/08 02:53:02;;;;;;;3.10;1.40;;;7.70;99.90;;;;;;5031472;28;20480;-75
2023/11/08 02:55:28;;;;;;;1.67;1.30;;;7.80;99.90;;;;;;5032754;28;20463;-75
2023/11/08 02:57:54;;;;;;;1.87;1.40;;;7.80;99.90;;;;;;5032866;28;20433;-75
2023/11/08 03:00:21;;;;;;;1.87;1.30;;;7.80;99.90;;;;;;5031413;28;20417;-75
2023/11/08 03:02:47;;;;;;;3.17;1.50;;;7.80;99.90;;;;;;5032680;28;20452;-75
2023/11/08 03:05:13;;;;;;;2.53;1.47;;;7.70;99.90;;;;;;5032957;28;20778;-75
2023/11/08 03:07:38;;;;;;;3.37;1.30;;;7.80;99.90;;;;;;5031311;28;20448;-75
2023/11/08 03:10:05;;;;;;;2.23;1.50;;;7.80;99.90;;;;;;5031455;28;20418;-76
2023/11/08 03:12:31;;;;;;;5.87;1.67;;;7.70;99.90;;;;;;5032398;28;20244;-75
2023/11/08 03:14:56;;;;;;;3.80;1.53;;;7.70;99.90;;;;;;5032632;28;20420;-75
2023/11/08 03:17:22;;;;;;;2.70;1.80;;;7.70;99.90;;;;;;5032630;28;20405;-74
2023/11/08 03:19:48;;;;;;;2.50;1.30;;;7.80;99.90;;;;;;5032493;28;20684;-75
2023/11/08 03:22:15;;;;;;;4.37;1.67;;;8.00;99.90;;;;;;5032804;28;20280;-74
2023/11/08 03:24:42;;;;;;;2.10;1.37;;;7.90;99.90;;;;;;5032634;28;20173;-74
2023/11/08 03:27:08;;;;;;;2.63;1.53;;;7.90;99.90;;;;;;5032547;28;20417;-75
2023/11/08 03:29:34;;;;;;;4.00;1.60;;;7.80;99.90;;;;;;5032296;28;20444;-75
2023/11/08 03:32:00;;;;;;;1.33;1.23;;;7.80;99.90;;;;;;5032398;28;20279;-75
2023/11/08 03:34:27;;;;;;;4.30;1.97;;;7.80;99.90;;;;;;5032352;28;20402;-74
2023/11/08 03:36:53;;;;;;;3.50;1.60;;;7.70;99.90;;;;;;5031893;28;20788;-74
2023/11/08 03:39:19;;;;;;;3.63;1.77;;;7.80;99.90;;;;;;5032281;28;20450;-74
2023/11/08 03:41:45;;;;;;;2.87;1.70;;;7.70;99.90;;;;;;5032300;28;20442;-74
2023/11/08 03:44:11;;;;;;;3.87;1.70;;;7.80;99.90;;;;;;5032235;28;20162;-74
2023/11/08 03:46:36;;;;;;;2.23;1.73;;;7.90;99.90;;;;;;5031013;28;20423;-75
2023/11/08 03:49:02;;;;;;;2.30;1.53;;;7.80;99.90;;;;;;5035163;28;20198;-75
2023/11/08 03:51:28;;;;;;;4.13;1.50;;;7.80;99.90;;;;;;5035765;28;20159;-75
2023/11/08 03:53:54;;;;;;;2.53;1.30;;;7.90;99.90;;;;;;5035938;28;20204;-75
2023/11/08 03:56:19;;;;;;;2.40;1.53;;;8.00;99.90;;;;;;5035722;28;20160;-75
2023/11/08 03:58:45;;;;;;;3.37;1.90;;;8.00;99.90;;;;;;5035580;28;20186;-75
2023/11/08 04:01:10;;;;;;;2.70;1.40;;;8.00;99.90;;;;;;5035252;28;20182;-75
2023/11/08 04:03:36;;;;;;;7.90;1.80;;;8.10;99.90;;;;;;5035832;28;20171;-75
2023/11/08 04:06:02;;;;;;;2.37;1.60;;;8.20;99.90;;;;;;5035537;28;20166;-75
2023/11/08 04:08:28;;;;;;;11.53;2.30;;;8.30;99.90;;;;;;5035421;28;20193;-75
2023/11/08 04:10:54;;;;;;;3.53;2.07;;;8.30;99.90;;;;;;5035471;28;20497;-75
2023/11/08 04:13:19;;;;;;;7.47;1.80;;;8.40;99.90;;;;;;5035297;28;20192;-75
2023/11/08 04:15:45;;;;;;;4.13;1.70;;;8.40;99.90;;;;;;5035745;28;20172;-75
2023/11/08 04:18:11;;;;;;;2.40;1.60;;;8.40;99.90;;;;;;5034809;28;20276;-75
2023/11/08 04:20:38;;;;;;;2.93;1.93;;;8.50;99.90;;;;;;5035249;28;20440;-75
2023/11/08 04:23:04;;;;;;;2.23;1.57;;;8.60;99.90;;;;;;5035216;28;20191;-75
2023/11/08 04:25:29;;;;;;;2.30;1.70;;;8.60;99.90;;;;;;5035093;28;20442;-75
2023/11/08 04:27:55;;;;;;;5.93;2.20;;;8.60;99.90;;;;;;5034842;28;20210;-75
2023/11/08 04:30:21;;;;;;;4.20;1.80;;;8.70;99.90;;;;;;5035632;28;20163;-75
2023/11/08 04:32:46;;;;;;;2.50;1.80;;;8.70;99.90;;;;;;5034699;28;20753;-75
2023/11/08 04:35:14;;;;;;;3.53;1.70;;;8.50;99.90;;;;;;5034863;28;20546;-75
2023/11/08 04:37:42;;;;;;;2.07;1.37;;;8.60;99.90;;;;;;5035185;28;20164;-75
2023/11/08 04:40:09;;;;;;;1.90;1.70;;;8.50;99.90;;;;;;5034819;28;20404;-75
2023/11/08 04:42:35;;;;;;;3.83;1.67;;;8.50;99.90;;;;;;5034882;28;20489;-75
2023/11/08 04:45:01;;;;;;;3.30;1.80;;;8.70;99.90;;;;;;5034757;28;20444;-75
2023/11/08 04:47:26;;;;;;;3.10;1.70;;;8.70;99.90;;;;;;5034740;28;20434;-75
2023/11/08 04:49:53;;;;;;;4.30;1.63;;;8.60;99.90;;;;;;5034631;28;20197;-75
2023/11/08 04:52:20;;;;;;;2.97;1.80;;;8.70;99.90;;;;;;5034834;28;20237;-75
2023/11/08 04:54:47;;;;;;;2.97;2.00;;;8.80;99.90;;;;;;5034698;28;20937;-74
2023/11/08 04:57:16;;;;;;;2.77;1.93;;;8.80;99.90;;;;;;5034518;28;20397;-75
2023/11/08 04:59:47;;;;;;;1.93;1.43;;;8.80;99.90;;;;;;5034362;28;20441;-74
2023/11/08 05:02:14;;;;;;;3.70;1.80;;;8.70;99.90;;;;;;5034444;28;20417;-74
2023/11/08 05:04:39;;;;;;;2.40;1.60;;;8.80;99.90;;;;;;5034421;28;20834;-74
2023/11/08 05:07:08;;;;;;;5.33;2.00;;;8.80;99.90;;;;;;5034425;28;20493;-74
2023/11/08 05:09:38;;;;;;;3.37;1.47;;;8.90;99.90;;;;;;5034246;28;20201;-74
2023/11/08 05:12:05;;;;;;;109.07;57.20;;;8.90;99.90;;;;;;5034267;28;20934;-74
2023/11/08 05:14:30;;;;;;;11.03;5.53;;;8.80;99.90;;;;;;5034300;28;20481;-75
2023/11/08 05:16:56;;;;;;;7.87;5.63;;;8.70;99.90;;;;;;5034134;28;20464;-74
2023/11/08 05:19:22;;;;;;;9.07;5.00;;;8.70;99.90;;;;;;5034081;28;20198;-74
2023/11/08 05:21:49;;;;;;;5.73;3.80;;;8.80;99.90;;;;;;5034163;28;20237;-74
2023/11/08 05:24:14;;;;;;;4.57;1.80;;;8.70;99.90;;;;;;5034161;28;20775;-74
2023/11/08 05:26:40;;;;;;;4.13;2.30;;;8.60;99.90;;;;;;5034021;28;20493;-75
2023/11/08 05:29:06;;;;;;;3.73;2.07;;;8.50;99.90;;;;;;5039368;28;20234;-74
2023/11/08 05:31:33;;;;;;;2.80;2.07;;;8.50;99.90;;;;;;5034318;28;20250;-74
2023/11/08 05:34:01;;;;;;;3.40;2.20;;;8.50;99.90;;;;;;5033845;28;21023;-74
2023/11/08 05:36:27;;;;;;;3.70;2.40;;;8.40;99.90;;;;;;5027085;28;20407;-73
2023/11/08 05:38:53;;;;;;;4.57;2.30;;;8.30;99.90;;;;;;5024435;28;20440;-74
2023/11/08 05:41:19;;;;;;;2.73;1.90;;;8.30;99.90;;;;;;5023240;28;20240;-74
2023/11/08 05:43:45;;;;;;;3.73;2.43;;;8.20;99.90;;;;;;5033505;28;20176;-75
2023/11/08 05:46:11;;;;;;;2.80;2.10;;;8.10;99.90;;;;;;5027531;28;20433;-74
2023/11/08 05:48:37;;;;;;;3.50;2.40;;;8.10;99.90;;;;;;5024090;28;21042;-75
2023/11/08 05:51:05;;;;;;;2.90;2.30;;;8.00;99.90;;;;;;5024161;28;20182;-75
2023/11/08 05:53:31;;;;;;;5.63;2.93;;;7.90;99.90;;;;;;5023921;28;20997;-75
2023/11/08 05:55:57;;;;;;;3.93;1.97;;;7.90;99.90;;;;;;5024554;28;20417;-74
2023/11/08 05:58:22;;;;;;;5.73;4.47;;;7.80;99.90;;;;;;5030456;28;20196;-74
2023/11/08 06:00:48;;;;;;;2.90;2.27;;;7.80;99.90;;;;;;5034247;28;20170;-74
2023/11/08 06:03:14;;;;;;;3.87;2.53;;;7.80;99.90;;;;;;5033346;28;20179;-74
2023/11/08 06:05:40;;;;;;;6.53;2.90;;;7.90;99.90;;;;;;5033288;28;20171;-74
2023/11/08 06:08:06;;;;;;;5.47;2.70;;;8.00;99.90;;;;;;5033100;28;20506;-74
2023/11/08 06:10:33;;;;;;;2.27;2.03;;;8.00;99.90;;;;;;5032667;28;20209;-74
2023/11/08 06:12:58;;;;;;;9.97;3.33;;;8.10;99.90;;;;;;5033110;28;20467;-74
2023/11/08 06:15:24;;;;;;;2.73;2.23;;;8.10;99.90;;;;;;5033220;28;20907;-74
2023/11/08 06:17:52;;;;;;;3.77;2.87;;;8.00;99.90;;;;;;5033239;28;20191;-74
2023/11/08 06:20:21;;;;;;;3.67;2.70;;;7.90;99.90;;;;;;5031808;28;20180;-74
2023/11/08 06:22:47;;;;;;;2.93;2.00;;;8.00;99.90;;;;;;5032543;28;20468;-74
2023/11/08 06:25:13;;;;;;;3.60;2.40;;;8.10;99.90;;;;;;5031478;28;20418;-74
2023/11/08 06:27:38;;;;;;;2.77;2.13;;;8.00;99.90;;;;;;5032358;28;20761;-74
2023/11/08 06:30:04;;;;;;;3.50;1.90;;;8.00;99.90;;;;;;5032752;28;20229;-74
2023/11/08 06:32:30;;;;;;;5.20;2.33;;;7.90;99.90;;;;;;5029295;28;20211;-74
2023/11/08 06:35:00;;;;;;;3.23;1.83;;;7.80;99.90;;;;;;5032313;28;20447;-74
2023/11/08 06:37:28;;;;;;;3.50;2.17;;;7.80;99.90;;;;;;5031462;28;20163;-74
2023/11/08 06:39:55;;;;;;;3.10;2.10;;;7.90;99.90;;;;;;5032698;28;20423;-74
2023/11/08 06:42:21;;;;;;;3.40;2.20;;;7.90;99.90;;;;;;5032599;28;20497;-74
2023/11/08 06:44:47;;;;;;;3.60;2.10;;;7.90;99.90;;;;;;5031178;28;20932;-74
2023/11/08 06:47:12;;;;;;;2.70;1.63;;;7.90;99.90;;;;;;5033514;28;20419;-74
2023/11/08 06:49:38;;;;;;;4.30;2.30;;;8.00;99.90;;;;;;5031152;28;20206;-74
2023/11/08 06:52:04;;;;;;;3.73;1.90;;;8.00;99.90;;;;;;5032586;28;20309;-74
2023/11/08 06:54:33;;;;;;;4.17;2.43;;;8.00;99.90;;;;;;5033088;28;20645;-74
2023/11/08 06:56:58;;;;;;;2.10;1.90;;;8.20;99.90;;;;;;5032947;28;20411;-74
2023/11/08 06:59:24;;;;;;;3.43;2.03;;;8.20;99.90;;;;;;5032514;28;20771;-74
2023/11/08 07:01:50;;;;;;;3.10;2.17;;;8.20;99.90;;;;;;5032751;28;20197;-74
2023/11/08 07:04:16;;;;;;;6.10;2.20;;;8.30;99.90;;;;;;5033097;28;20477;-74
2023/11/08 07:06:42;;;;;;;1.90;1.50;;;8.30;99.90;;;;;;5031650;28;20429;-74
2023/11/08 07:09:10;;;;;;;3.07;2.77;;;8.20;99.90;;;;;;5033933;28;20197;-73
2023/11/08 07:11:36;;;;;;;4.00;1.77;;;8.30;99.90;;;;;;5032870;28;20177;-74
2023/11/08 07:14:01;;;;;;;3.33;1.87;;;8.30;99.90;;;;;;5032514;28;20471;-74
2023/11/08 07:16:28;;;;;;;3.10;1.70;;;8.30;99.90;;;;;;5032353;28;20255;-74
2023/11/08 07:18:55;;;;;;;3.90;2.10;;;8.40;99.90;;;;;;5031027;28;20194;-74
2023/11/08 07:21:22;;;;;;;3.67;1.77;;;8.50;99.90;;;;;;5033077;28;20410;-75
2023/11/08 07:23:48;;;;;;;3.37;1.90;;;8.60;99.90;;;;;;5036957;28;20468;-75
2023/11/08 07:26:15;;;;;;;3.33;2.10;;;8.70;99.90;;;;;;5036117;28;20780;-74
2023/11/08 07:28:43;;;;;;;3.50;1.87;;;8.70;99.90;;;;;;5035930;28;20543;-73
2023/11/08 07:31:08;;;;;;;4.50;2.00;;;8.80;99.90;;;;;;5036222;28;20404;-74
2023/11/08 07:33:38;;;;;;;4.40;2.20;;;8.70;99.90;;;;;;5036615;28;20460;-74
2023/11/08 07:36:05;;;;;;;4.77;2.03;;;8.70;99.90;;;;;;5035649;28;20651;-75
2023/11/08 07:38:31;;;;;;;4.47;2.10;;;8.60;99.90;;;;;;5035699;28;20456;-75
2023/11/08 07:40:58;;;;;;;2.23;2.03;;;8.80;99.90;;;;;;5036517;28;20420;-75
2023/11/08 07:43:24;;;;;;;3.37;1.50;;;8.80;99.90;;;;;;5036121;28;20506;-75
2023/11/08 07:45:49;;;;;;;4.03;1.97;;;8.90;99.90;;;;;;5034278;28;20892;-75
2023/11/08 07:48:15;;;;;;;3.47;2.10;;;9.00;99.90;;;;;;5036092;28;20727;-75
2023/11/08 07:50:41;;;;;;;3.27;2.00;;;9.00;99.90;;;;;;5035481;28;20287;-75
2023/11/08 07:53:07;;;;;;;3.37;1.80;;;9.00;99.90;;;;;;5035471;28;20632;-75
2023/11/08 07:55:33;;;;;;;2.20;1.83;;;9.00;99.90;;;;;;5036138;28;20256;-75
2023/11/08 07:58:00;;;;;;;4.30;2.17;;;8.90;99.90;;;;;;5035206;28;20519;-75
2023/11/08 08:00:26;;;;;;;4.87;1.90;;;9.10;99.90;;;;;;5034163;28;20207;-75
2023/11/08 08:02:52;;;;;;;4.03;2.13;;;9.20;99.90;;;;;;5035514;28;20838;-74
2023/11/08 08:05:18;;;;;;;3.30;2.37;;;9.20;99.90;;;;;;5036008;28;20416;-72
2023/11/08 08:07:44;;;;;;;2.73;2.10;;;9.20;99.90;;;;;;5035336;28;20266;-73
2023/11/08 08:10:12;;;;;;;4.60;2.90;;;9.20;99.90;;;;;;5034851;28;20205;-75
2023/11/08 08:12:38;;;;;;;4.00;2.67;;;9.20;99.90;;;;;;5034282;28;20254;-75
2023/11/08 08:15:05;;;;;;;3.57;2.23;;;9.20;99.90;;;;;;5034106;28;20819;-73
2023/11/08 08:17:32;;;;;;;4.80;2.50;;;9.10;99.90;;;;;;5034311;28;20429;-75
2023/11/08 08:19:58;;;;;;;2.87;1.70;;;9.20;99.90;;;;;;5034988;28;20426;-73
2023/11/08 08:22:23;;;;;;;3.50;1.80;;;9.30;99.90;;;;;;5035573;28;20411;-75
2023/11/08 08:24:49;;;;;;;2.00;1.70;;;9.40;99.90;;;;;;5035031;28;20173;-74
2023/11/08 08:27:15;;;;;;;5.43;1.90;;;9.40;99.90;;;;;;5035077;28;20259;-73
2023/11/08 08:29:41;;;;;;;3.30;2.60;;;9.40;99.90;;;;;;5074729;22;20226;-72
2023/11/08 08:32:07;;;;;;;2.93;1.80;;;9.50;99.90;;;;;;5054370;28;20170;-73
2023/11/08 08:34:32;;;;;;;4.77;2.20;;;9.60;99.90;;;;;;5053880;28;20184;-73
2023/11/08 08:36:58;;;;;;;2.90;1.80;;;9.70;99.90;;;;;;5055332;28;20403;-73
2023/11/08 08:39:27;;;;;;;3.10;2.10;;;9.70;99.90;;;;;;5054755;28;20198;-72
2023/11/08 08:41:53;;;;;;;3.00;1.80;;;9.80;99.90;;;;;;5055261;28;20177;-71
2023/11/08 08:44:19;;;;;;;2.50;1.53;;;9.80;99.90;;;;;;5055193;28;20411;-71
2023/11/08 08:46:45;;;;;;;3.97;1.60;;;9.80;99.90;;;;;;5055313;28;20499;-73
2023/11/08 08:49:12;;;;;;;2.73;1.60;;;9.80;99.90;;;;;;5054532;28;20187;-72
2023/11/08 08:51:38;;;;;;;1.23;1.10;;;9.80;99.90;;;;;;5054892;28;20772;-71
2023/11/08 08:54:06;;;;;;;2.60;1.30;;;10.00;99.90;;;;;;5054664;28;20444;-74
2023/11/08 08:56:35;;;;;;;2.70;1.33;;;10.10;99.90;;;;;;5054393;28;20424;-72
2023/11/08 08:59:02;;;;;;;2.00;1.37;;;10.20;99.90;;;;;;5054233;28;20451;-74
2023/11/08 09:01:28;;;;;;;1.73;1.30;;;10.10;99.90;;;;;;5054717;28;20408;-72
2023/11/08 09:03:54;;;;;;;2.07;1.57;;;10.20;99.90;;;;;;5054229;28;20964;-73
2023/11/08 09:06:20;;;;;;;1.67;1.27;;;10.30;99.90;;;;;;5054760;28;20484;-74
2023/11/08 09:08:46;;;;;;;2.93;1.23;;;10.40;99.90;;;;;;5054037;28;20567;-71
2023/11/08 09:11:12;;;;;;;1.43;1.07;;;10.50;99.90;;;;;;5054135;28;20629;-70
2023/11/08 09:13:37;;;;;;;3.17;1.70;;;10.60;99.90;;;;;;5054323;28;20458;-69
2023/11/08 09:16:07;;;;;;;2.87;1.23;;;10.60;99.90;;;;;;5054121;28;20179;-73
2023/11/08 09:18:33;;;;;;;2.60;1.23;;;10.50;99.90;;;;;;5054039;28;20225;-72
2023/11/08 09:20:59;;;;;;;2.07;1.03;;;10.60;99.90;;;;;;5054452;28;20458;-72
2023/11/08 09:23:28;;;;;;;2.63;1.17;;;10.90;99.90;;;;;;5054505;28;20908;-71
2023/11/08 09:25:54;;;;;;;3.20;1.43;;;10.90;99.90;;;;;;5054310;28;20519;-72
2023/11/08 09:28:19;;;;;;;3.50;1.13;;;10.70;99.90;;;;;;5053926;28;20443;-72
2023/11/08 09:30:45;;;;;;;1.53;1.00;;;10.70;99.90;;;;;;5033884;28;20470;-71
2023/11/08 09:33:11;;;;;;;2.20;1.33;;;10.70;99.90;;;;;;5033883;28;20278;-71
2023/11/08 09:35:37;;;;;;;3.27;1.53;;;10.80;99.90;;;;;;5034024;28;20448;-73
2023/11/08 09:38:03;;;;;;;3.00;1.10;;;10.90;99.90;;;;;;5033713;28;20163;-72
2023/11/08 09:40:28;;;;;;;3.03;1.30;;;10.80;99.90;;;;;;5051315;28;20408;-72
2023/11/08 09:42:56;;;;;;;3.80;1.37;;;10.90;99.90;;;;;;5053802;28;20177;-70
2023/11/08 09:45:25;;;;;;;1.97;0.97;;;11.00;99.90;;;;;;5053824;28;20300;-71
2023/11/08 09:47:51;;;;;;;1.53;1.10;;;11.10;99.90;;;;;;5052887;28;20496;-68
2023/11/08 09:50:21;;;;;;;2.70;1.20;;;11.10;99.90;;;;;;5053259;28;20492;-69
2023/11/08 09:52:47;;;;;;;2.93;1.20;;;11.20;99.90;;;;;;5053155;28;20183;-73
2023/11/08 09:55:13;;;;;;;1.90;1.17;;;11.40;99.90;;;;;;5053659;28;20402;-72
2023/11/08 09:57:40;;;;;;;2.60;1.10;;;11.40;99.90;;;;;;5053793;28;20171;-77
2023/11/08 10:00:07;;;;;;;1.63;1.10;;;11.40;99.90;;;;;;5055993;28;20191;-71
2023/11/08 10:02:36;;;;;;;2.70;1.43;;;11.50;99.90;;;;;;5053443;28;20413;-77
2023/11/08 10:05:04;;;;;;;3.90;1.30;;;11.50;99.90;;;;;;5055110;28;20403;-77
2023/11/08 10:07:29;;;;;;;2.13;0.97;;;11.50;99.90;;;;;;5053712;28;20401;-72
2023/11/08 10:09:55;;;;;;;1.90;1.20;;;11.50;99.90;;;;;;5052963;28;20485;-71
2023/11/08 10:12:21;;;;;;;1.73;0.93;;;11.60;99.90;;;;;;5052750;28;20534;-72
2023/11/08 10:14:59;;;;;;;1.97;1.23;;;11.60;99.90;;;;;;5053388;28;20283;-71
2023/11/08 10:17:54;;;;;;;1.67;0.90;;;11.50;99.90;;;;;;5053317;28;20789;-71
2023/11/08 10:20:20;;;;;;;1.37;1.10;;;11.50;99.90;;;;;;5047969;28;20429;-72
2023/11/08 10:22:48;;;;;;;1.60;1.00;;;11.40;99.90;;;;;;5052508;28;20912;-71
2023/11/08 10:25:16;;;;;;;3.00;0.80;;;11.40;99.90;;;;;;5052642;28;20182;-71
2023/11/08 10:27:41;;;;;;;3.07;1.23;;;11.30;99.90;;;;;;5053004;28;20397;-72
2023/11/08 10:30:15;;;;;;;1.77;1.07;;;11.40;99.90;;;;;;5052628;28;20472;-71
2023/11/08 10:32:43;;;;;;;1.63;0.70;;;11.60;99.90;;;;;;5052574;28;20234;-71
2023/11/08 10:35:21;;;;;;;1.10;0.90;;;11.70;99.90;;;;;;5052692;28;20406;-72
2023/11/08 10:37:48;;;;;;;2.63;0.93;;;11.90;99.90;;;;;;5053080;28;20439;-71
2023/11/08 10:40:14;;;;;;;1.73;0.80;;;12.00;99.90;;;;;;5052829;28;20405;-71
2023/11/08 10:42:48;;;;;;;2.00;0.80;;;12.30;99.90;;;;;;5052748;28;20499;-71
2023/11/08 10:45:14;;;;;;;1.30;0.83;;;12.30;99.90;;;;;;5052777;28;20407;-71
2023/11/08 10:47:40;;;;;;;2.47;1.13;;;12.30;99.90;;;;;;5052647;28;20445;-71
2023/11/08 10:50:08;;;;;;;3.97;1.10;;;12.40;99.90;;;;;;5052678;28;20273;-74
2023/11/08 10:52:35;;;;;;;6.00;1.03;;;12.60;99.90;;;;;;5051433;28;20545;-73
2023/11/08 10:55:04;;;;;;;0.87;0.73;;;13.00;99.90;;;;;;5052669;28;20813;-76
2023/11/08 10:57:32;;;;;;;1.13;0.87;;;13.20;99.90;;;;;;5055489;28;20442;-73
2023/11/08 11:00:00;;;;;;;1.33;0.90;;;13.80;99.90;;;;;;5056792;28;20428;-73
2023/11/08 11:02:48;;;;;;;1.83;1.10;;;14.50;99.90;;;;;;5056915;28;20408;-73
2023/11/08 11:05:23;;;;;;;1.90;1.20;;;14.10;99.90;;;;;;5056990;28;20444;-73
2023/11/08 11:07:50;;;;;;;2.00;1.00;;;13.70;99.90;;;;;;5056633;28;20778;-73
2023/11/08 11:10:17;;;;;;;2.10;1.03;;;13.50;99.90;;;;;;5056017;28;20806;-74
2023/11/08 11:13:04;;;;;;;2.80;1.10;;;13.40;99.90;;;;;;5056306;28;20978;-73
2023/11/08 11:15:52;;;;;;;1.57;1.00;;;14.00;99.90;;;;;;5056503;28;20436;-74
2023/11/08 11:18:21;;;;;;;1.10;0.90;;;15.10;99.90;;;;;;5056163;28;20454;-73
2023/11/08 11:21:05;;;;;;;3.00;1.20;;;15.10;99.90;;;;;;5056210;28;20410;-73
2023/11/08 11:23:41;;;;;;;2.97;1.00;;;14.80;99.90;;;;;;5056355;28;20912;-74
2023/11/08 11:26:10;;;;;;;3.10;1.47;;;14.20;99.90;;;;;;5056513;28;20843;-73
2023/11/08 11:28:55;;;;;;;3.40;1.30;;;13.60;99.90;;;;;;5056211;28;20510;-73
2023/11/08 11:31:33;;;;;;;2.20;0.93;;;14.50;99.90;;;;;;5056227;28;20817;-73
2023/11/08 11:33:58;;;;;;;1.93;0.93;;;14.80;99.90;;;;;;5055664;28;20841;-73
2023/11/08 11:36:24;;;;;;;4.13;0.90;;;14.80;99.90;;;;;;5056255;28;20414;-73
2023/11/08 11:39:19;;;;;;;1.33;0.93;;;14.60;99.90;;;;;;5056101;28;20190;-73
2023/11/08 11:41:44;;;;;;;2.30;0.80;;;14.30;99.90;;;;;;5056120;28;20392;-73
2023/11/08 11:44:10;;;;;;;1.90;1.00;;;14.40;99.90;;;;;;5056101;28;20385;-73
2023/11/08 11:46:36;;;;;;;1.37;1.00;;;14.00;99.90;;;;;;5055842;28;20170;-74
2023/11/08 11:49:09;;;;;;;2.23;0.90;;;14.00;99.90;;;;;;5055253;28;20195;-73
2023/11/08 11:51:37;;;;;;;1.50;1.00;;;14.10;99.90;;;;;;5055993;28;20154;-72
2023/11/08 11:54:03;;;;;;;1.37;0.70;;;14.10;99.90;;;;;;5055900;28;20458;-72
2023/11/08 11:56:30;;;;;;;2.07;1.10;;;13.70;99.90;;;;;;5056407;28;20407;-74
2023/11/08 11:59:00;;;;;;;2.23;0.90;;;13.70;99.90;;;;;;5055859;28;20277;-76
2023/11/08 12:01:27;;;;;;;2.40;0.93;;;13.80;99.90;;;;;;5055839;28;20400;-74
2023/11/08 12:03:52;;;;;;;3.07;1.03;;;13.60;99.90;;;;;;5056026;28;20757;-75
2023/11/08 12:06:19;;;;;;;1.67;0.90;;;13.70;99.90;;;;;;5056658;28;20422;-73
2023/11/08 12:08:45;;;;;;;1.00;0.80;;;13.80;99.90;;;;;;5054789;28;20194;-73
2023/11/08 12:11:19;;;;;;;1.57;0.73;;;13.60;99.90;;;;;;5055619;28;20908;-73
2023/11/08 12:13:55;;;;;;;1.00;0.70;;;13.60;99.90;;;;;;5055286;28;20205;-70
2023/11/08 12:16:21;;;;;;;1.13;0.90;;;13.50;99.90;;;;;;5054947;28;20905;-74
2023/11/08 12:18:47;;;;;;;1.40;0.83;;;13.50;99.90;;;;;;5055344;28;20513;-73
2023/11/08 12:21:14;;;;;;;1.37;0.80;;;13.50;99.90;;;;;;5055473;28;20414;-74
2023/11/08 12:23:58;;;;;;;3.00;0.90;;;13.40;99.90;;;;;;5055072;28;20462;-72
2023/11/08 12:26:23;;;;;;;0.97;0.70;;;13.70;99.90;;;;;;5055300;28;20397;-74
2023/11/08 12:28:49;;;;;;;0.80;0.60;;;13.90;99.90;;;;;;5054926;28;20473;-70
2023/11/08 12:31:21;;;;;;;1.57;0.60;;;14.00;99.90;;;;;;5055183;28;20218;-70
2023/11/08 12:33:49;;;;;;;2.40;1.13;;;13.70;99.90;;;;;;5054997;28;20208;-73
2023/11/08 12:36:14;;;;;;;1.13;0.63;;;14.10;99.90;;;;;;5055070;28;20492;-71
2023/11/08 12:38:40;;;;;;;1.00;0.60;;;14.60;99.90;;;;;;5054804;28;20520;-72
2023/11/08 12:41:07;;;;;;;1.27;0.60;;;15.80;99.90;;;;;;5054878;28;20170;-71
2023/11/08 12:43:34;;;;;;;2.00;0.90;;;17.00;99.90;;;;;;5054851;28;20283;-72
2023/11/08 12:46:05;;;;;;;1.50;0.63;;;17.10;99.80;;;;;;5054604;28;20409;-72
2023/11/08 12:48:34;;;;;;;1.07;0.70;;;16.40;99.60;;;;;;5054698;28;20762;-71
2023/11/08 12:51:05;;;;;;;1.00;0.60;;;16.10;99.90;;;;;;5054645;28;20779;-71
2023/11/08 12:53:31;;;;;;;2.33;0.90;;;15.90;99.90;;;;;;5054644;28;20451;-72